createdAt,value
2023-11-30T00:01:27.150Z,100427.19
2023-11-30T00:03:54.936Z,100433.97
2023-11-30T00:06:21.918Z,100434.91
2023-11-30T00:08:52.236Z,100436.66
2023-11-30T00:11:20.581Z,100432.34
2023-11-30T00:13:56.798Z,100427.81
2023-11-30T00:16:26.006Z,100442.63
2023-11-30T00:18:57.944Z,100442.50
2023-11-30T00:21:24.880Z,100444.28
2023-11-30T00:23:52.043Z,100435.50
2023-11-30T00:26:18.918Z,100431.00
2023-11-30T00:28:45.806Z,100437.25
2023-11-30T00:31:12.873Z,100442.50
2023-11-30T00:33:41.441Z,100439.16
2023-11-30T00:36:09.879Z,100436.50
2023-11-30T00:38:36.883Z,100428.72
2023-11-30T00:41:04.997Z,100421.75
2023-11-30T00:43:37.115Z,100417.50
2023-11-30T00:46:09.889Z,100420.06
2023-11-30T00:48:38.551Z,100414.66
2023-11-30T00:51:12.632Z,100418.25
2023-11-30T00:53:43.788Z,100411.25
2023-11-30T00:56:15.645Z,100407.06
2023-11-30T00:58:42.618Z,100391.41
2023-11-30T01:01:09.815Z,100401.91
2023-11-30T01:03:36.788Z,100401.13
2023-11-30T01:06:03.878Z,100402.88
2023-11-30T01:08:30.787Z,100387.13
2023-11-30T01:10:57.937Z,100378.44
2023-11-30T01:13:26.151Z,100389.00
2023-11-30T01:15:53.093Z,100400.38
2023-11-30T01:18:20.271Z,100400.38
2023-11-30T01:20:47.304Z,100416.94
2023-11-30T01:23:14.623Z,100423.03
2023-11-30T01:25:41.723Z,100414.13
2023-11-30T01:28:11.427Z,100414.97
2023-11-30T01:30:47.518Z,100417.56
2023-11-30T01:33:14.621Z,100420.97
2023-11-30T01:35:48.285Z,100424.50
2023-11-30T01:38:21.475Z,100421.03
2023-11-30T01:40:51.368Z,100422.78
2023-11-30T01:43:33.485Z,100436.72
2023-11-30T01:46:03.785Z,100443.56
2023-11-30T01:48:33.920Z,100442.66
2023-11-30T01:51:07.178Z,100432.13
2023-11-30T01:53:37.098Z,100444.31
2023-11-30T01:56:14.182Z,100441.84
2023-11-30T01:58:41.795Z,100447.91
2023-11-30T02:01:16.195Z,100451.38
2023-11-30T02:03:43.213Z,100449.81
2023-11-30T02:06:10.411Z,100451.53
2023-11-30T02:08:37.430Z,100437.53
2023-11-30T02:11:04.428Z,100435.09
2023-11-30T02:13:31.362Z,100431.50
2023-11-30T02:16:01.372Z,100426.16
2023-11-30T02:18:28.497Z,100427.16
2023-11-30T02:20:56.974Z,100420.94
2023-11-30T02:23:23.882Z,100421.03
2023-11-30T02:25:50.757Z,100407.13
2023-11-30T02:28:18.615Z,100400.16
2023-11-30T02:30:47.924Z,100376.56
2023-11-30T02:33:16.179Z,100362.66
2023-11-30T02:35:43.257Z,100365.38
2023-11-30T02:38:10.893Z,100352.22
2023-11-30T02:40:38.874Z,100351.31
2023-11-30T02:43:05.991Z,100347.72
2023-11-30T02:45:33.164Z,100341.72
2023-11-30T02:48:01.029Z,100335.56
2023-11-30T02:50:32.240Z,100328.72
2023-11-30T02:52:59.284Z,100328.72
2023-11-30T02:55:26.402Z,100331.53
2023-11-30T02:57:53.432Z,100312.38
2023-11-30T03:00:20.514Z,100306.22
2023-11-30T03:02:47.623Z,100307.75
2023-11-30T03:05:33.899Z,100319.97
2023-11-30T03:08:02.865Z,100317.53
2023-11-30T03:10:29.811Z,100305.34
2023-11-30T03:12:56.758Z,100293.88
2023-11-30T03:15:24.527Z,100295.59
2023-11-30T03:17:54.893Z,100302.53
2023-11-30T03:20:25.550Z,100285.31
2023-11-30T03:22:52.551Z,100285.31
2023-11-30T03:25:19.533Z,100293.16
2023-11-30T03:27:46.732Z,100291.56
2023-11-30T03:30:13.989Z,100307.94
2023-11-30T03:32:41.025Z,100315.03
2023-11-30T03:35:08.058Z,100314.19
2023-11-30T03:37:35.195Z,100306.34
2023-11-30T03:40:02.135Z,100301.16
2023-11-30T03:42:29.093Z,100302.75
2023-11-30T03:44:56.556Z,100314.94
2023-11-30T03:47:25.786Z,100307.22
2023-11-30T03:50:00.348Z,100302.06
2023-11-30T03:52:27.539Z,100287.97
2023-11-30T03:54:57.365Z,100278.47
2023-11-30T03:57:25.318Z,100282.97
2023-11-30T03:59:53.627Z,100275.19
2023-11-30T04:02:28.162Z,100282.97
2023-11-30T04:04:55.414Z,100280.19
2023-11-30T04:07:23.524Z,100276.78
2023-11-30T04:09:53.529Z,100283.06
2023-11-30T04:12:23.297Z,100291.72
2023-11-30T04:14:51.579Z,100280.44
2023-11-30T04:17:18.774Z,100278.56
2023-11-30T04:19:46.351Z,100276.91
2023-11-30T04:22:15.290Z,100261.13
2023-11-30T04:24:42.472Z,100267.31
2023-11-30T04:27:09.674Z,100275.00
2023-11-30T04:29:36.750Z,100266.25
2023-11-30T04:32:05.937Z,100270.53
2023-11-30T04:34:35.378Z,100263.56
2023-11-30T04:37:02.414Z,100262.91
2023-11-30T04:39:31.842Z,100268.97
2023-11-30T04:42:01.684Z,100263.13
2023-11-30T04:44:32.311Z,100262.25
2023-11-30T04:47:00.021Z,100259.69
2023-11-30T04:49:27.123Z,100254.41
2023-11-30T04:51:54.297Z,100262.28
2023-11-30T04:54:22.758Z,100265.66
2023-11-30T04:56:50.405Z,100259.56
2023-11-30T04:59:17.547Z,100270.78
2023-11-30T05:01:44.793Z,100279.59
2023-11-30T05:04:11.974Z,100273.00
2023-11-30T05:06:42.192Z,100266.78
2023-11-30T05:09:12.656Z,100258.94
2023-11-30T05:11:39.852Z,100263.28
2023-11-30T05:14:06.725Z,100261.59
2023-11-30T05:16:33.793Z,100276.50
2023-11-30T05:19:09.383Z,100284.41
2023-11-30T05:21:36.549Z,100285.19
2023-11-30T05:24:03.750Z,100285.13
2023-11-30T05:26:30.825Z,100287.88
2023-11-30T05:28:58.086Z,100284.19
2023-11-30T05:31:34.836Z,100286.91
2023-11-30T05:34:03.783Z,100304.28
2023-11-30T05:36:30.997Z,100311.34
2023-11-30T05:38:58.259Z,100313.94
2023-11-30T05:41:25.755Z,100302.50
2023-11-30T05:43:52.642Z,100299.16
2023-11-30T05:46:26.012Z,100293.34
2023-11-30T05:48:56.501Z,100288.78
2023-11-30T05:51:23.508Z,100289.84
2023-11-30T05:53:50.563Z,100293.34
2023-11-30T05:56:17.722Z,100296.84
2023-11-30T05:58:45.109Z,100289.88
2023-11-30T06:01:12.876Z,100287.34
2023-11-30T06:03:40.302Z,100293.38
2023-11-30T06:06:12.070Z,100302.25
2023-11-30T06:08:39.059Z,100295.13
2023-11-30T06:11:06.427Z,100302.03
2023-11-30T06:13:34.303Z,100295.06
2023-11-30T06:16:04.400Z,100297.81
2023-11-30T06:18:31.380Z,100300.31
2023-11-30T06:20:59.447Z,100293.38
2023-11-30T06:23:27.915Z,100282.00
2023-11-30T06:25:56.790Z,100271.66
2023-11-30T06:28:23.658Z,100268.16
2023-11-30T06:30:50.547Z,100266.56
2023-11-30T06:33:17.730Z,100271.69
2023-11-30T06:35:44.810Z,100266.56
2023-11-30T06:38:12.023Z,100273.47
2023-11-30T06:40:39.997Z,100266.50
2023-11-30T06:43:08.938Z,100262.13
2023-11-30T06:45:35.869Z,100279.44
2023-11-30T06:48:02.868Z,100272.50
2023-11-30T06:50:29.938Z,100282.84
2023-11-30T06:52:56.856Z,100276.81
2023-11-30T06:55:23.879Z,100277.00
2023-11-30T06:57:53.797Z,100269.97
2023-11-30T07:00:23.208Z,100267.34
2023-11-30T07:02:50.502Z,100275.22
2023-11-30T07:05:20.210Z,100277.84
2023-11-30T07:07:50.272Z,100276.09
2023-11-30T07:10:17.395Z,100270.88
2023-11-30T07:12:44.596Z,100283.78
2023-11-30T07:15:11.714Z,100283.75
2023-11-30T07:17:39.058Z,100281.91
2023-11-30T07:20:08.493Z,100279.44
2023-11-30T07:22:36.185Z,100285.59
2023-11-30T07:25:05.663Z,100281.28
2023-11-30T07:27:36.592Z,100277.78
2023-11-30T07:30:09.461Z,100290.06
2023-11-30T07:32:36.665Z,100279.72
2023-11-30T07:35:08.500Z,100301.28
2023-11-30T07:37:36.212Z,100306.44
2023-11-30T07:40:08.454Z,100295.25
2023-11-30T07:42:37.754Z,100284.88
2023-11-30T07:45:07.324Z,100295.34
2023-11-30T07:47:34.652Z,100290.16
2023-11-30T07:50:02.031Z,100290.16
2023-11-30T07:52:29.130Z,100293.59
2023-11-30T07:54:56.518Z,100304.09
2023-11-30T07:57:23.674Z,100302.34
2023-11-30T07:59:56.251Z,100307.50
2023-11-30T08:02:23.489Z,100316.22
2023-11-30T08:04:50.651Z,100317.13
2023-11-30T08:07:19.240Z,100305.78
2023-11-30T08:09:46.336Z,100305.88
2023-11-30T08:12:14.069Z,100294.63
2023-11-30T08:14:41.648Z,100286.81
2023-11-30T08:17:08.802Z,100304.13
2023-11-30T08:19:35.864Z,100302.22
2023-11-30T08:22:02.965Z,100290.97
2023-11-30T08:24:33.770Z,100299.75
2023-11-30T08:27:01.573Z,100294.50
2023-11-30T08:29:28.837Z,100290.19
2023-11-30T08:31:56.084Z,100290.31
2023-11-30T08:34:23.162Z,100287.72
2023-11-30T08:36:53.592Z,100285.91
2023-11-30T08:39:25.558Z,100286.78
2023-11-30T08:41:52.758Z,100294.63
2023-11-30T08:44:19.958Z,100300.66
2023-11-30T08:46:47.247Z,100304.97
2023-11-30T08:49:17.440Z,100314.53
2023-11-30T08:51:45.923Z,100311.03
2023-11-30T08:54:13.461Z,100305.94
2023-11-30T08:56:40.551Z,100306.78
2023-11-30T08:59:07.721Z,100295.50
2023-11-30T09:01:35.368Z,100285.06
2023-11-30T09:04:06.670Z,100281.53
2023-11-30T09:06:39.845Z,100279.81
2023-11-30T09:09:08.188Z,100289.41
2023-11-30T09:11:37.534Z,100298.06
2023-11-30T09:14:04.605Z,100286.78
2023-11-30T09:16:31.593Z,100280.63
2023-11-30T09:18:58.509Z,100274.63
2023-11-30T09:21:27.155Z,100272.88
2023-11-30T09:23:58.718Z,100270.13
2023-11-30T09:26:29.296Z,100254.50
2023-11-30T09:28:56.385Z,100251.06
2023-11-30T09:31:23.393Z,100265.91
2023-11-30T09:33:52.843Z,100267.56
2023-11-30T09:36:19.863Z,100264.84
2023-11-30T09:38:47.057Z,100269.22
2023-11-30T09:44:00.142Z,100275.41
2023-11-30T09:46:30.014Z,100270.00
2023-11-30T09:48:59.461Z,100276.25
2023-11-30T09:51:33.352Z,100283.97
2023-11-30T09:54:00.894Z,100278.69
2023-11-30T09:56:29.318Z,100272.69
2023-11-30T09:58:57.275Z,100268.38
2023-11-30T10:01:24.504Z,100261.38
2023-11-30T10:03:53.233Z,100270.16
2023-11-30T10:06:20.692Z,100268.25
2023-11-30T10:08:47.983Z,100270.94
2023-11-30T10:11:14.905Z,100275.22
2023-11-30T10:13:42.015Z,100271.78
2023-11-30T10:16:12.439Z,100276.13
2023-11-30T10:18:39.658Z,100272.56
2023-11-30T10:21:09.053Z,100260.56
2023-11-30T10:23:36.560Z,100265.75
2023-11-30T10:26:03.942Z,100247.53
2023-11-30T10:28:31.580Z,100248.38
2023-11-30T10:31:00.767Z,100237.16
2023-11-30T10:33:29.761Z,100249.34
2023-11-30T10:36:02.384Z,100254.47
2023-11-30T10:38:32.976Z,100240.59
2023-11-30T10:41:18.770Z,100241.47
2023-11-30T10:43:50.095Z,100242.34
2023-11-30T10:46:17.821Z,100236.16
2023-11-30T10:48:45.269Z,100229.28
2023-11-30T10:51:13.482Z,100221.44
2023-11-30T10:54:06.148Z,100214.56
2023-11-30T10:56:34.422Z,100220.69
2023-11-30T10:59:01.466Z,100219.03
2023-11-30T11:01:28.789Z,100231.13
2023-11-30T11:03:58.733Z,100227.59
2023-11-30T11:06:40.298Z,100219.75
2023-11-30T11:09:09.035Z,100220.53
2023-11-30T11:11:41.373Z,100211.75
2023-11-30T11:14:08.718Z,100211.78
2023-11-30T11:16:46.146Z,100203.81
2023-11-30T11:19:15.554Z,100200.44
2023-11-30T11:21:43.418Z,100194.38
2023-11-30T11:24:10.692Z,100183.88
2023-11-30T11:27:00.882Z,100186.59
2023-11-30T11:29:38.610Z,100188.13
2023-11-30T11:32:13.499Z,100180.41
2023-11-30T11:34:40.473Z,100183.13
2023-11-30T11:37:10.119Z,100179.53
2023-11-30T11:39:38.167Z,100158.84
2023-11-30T11:42:08.261Z,100168.22
2023-11-30T11:44:35.608Z,100149.88
2023-11-30T11:47:02.643Z,100150.91
2023-11-30T11:49:37.636Z,100150.97
2023-11-30T11:52:05.025Z,100154.47
2023-11-30T11:54:32.096Z,100145.72
2023-11-30T11:56:59.320Z,100143.19
2023-11-30T11:59:27.945Z,100156.06
2023-11-30T12:01:59.357Z,100146.34
2023-11-30T12:04:38.220Z,100148.09
2023-11-30T12:07:16.852Z,100152.53
2023-11-30T12:09:55.532Z,100150.66
2023-11-30T12:12:33.546Z,100146.44
2023-11-30T12:15:00.971Z,100149.88
2023-11-30T12:17:27.960Z,100141.16
2023-11-30T12:19:57.580Z,100124.75
2023-11-30T12:22:25.052Z,100125.59
2023-11-30T12:24:52.529Z,100129.91
2023-11-30T12:27:19.746Z,100125.63
2023-11-30T12:29:47.042Z,100129.75
2023-11-30T12:32:14.529Z,100131.63
2023-11-30T12:34:41.595Z,100126.41
2023-11-30T12:37:10.999Z,100116.91
2023-11-30T12:39:41.781Z,100109.97
2023-11-30T12:42:09.220Z,100111.69
2023-11-30T12:44:39.045Z,100099.31
2023-11-30T12:47:06.229Z,100097.59
2023-11-30T12:49:35.152Z,100090.66
2023-11-30T12:52:03.441Z,100085.44
2023-11-30T12:54:30.761Z,100081.03
2023-11-30T12:57:00.853Z,100093.22
2023-11-30T12:59:28.401Z,100100.00
2023-11-30T13:01:56.409Z,100091.31
2023-11-30T13:04:24.274Z,100072.91
2023-11-30T13:06:51.904Z,100067.78
2023-11-30T13:09:19.271Z,100065.25
2023-11-30T13:11:49.307Z,100078.38
2023-11-30T13:14:17.062Z,100072.28
2023-11-30T13:16:44.464Z,100068.03
2023-11-30T13:19:16.620Z,100087.19
2023-11-30T13:21:43.844Z,100066.38
2023-11-30T13:24:18.993Z,100077.50
2023-11-30T13:26:48.323Z,100093.19
2023-11-30T13:29:18.742Z,100088.09
2023-11-30T13:31:46.086Z,100091.56
2023-11-30T13:34:13.505Z,100092.63
2023-11-30T13:36:41.002Z,100083.03
2023-11-30T13:39:08.167Z,100081.25
2023-11-30T13:41:35.209Z,100084.84
2023-11-30T13:44:06.498Z,100068.91
2023-11-30T13:46:33.877Z,100070.75
2023-11-30T13:49:00.950Z,100065.66
2023-11-30T13:51:28.018Z,100053.50
2023-11-30T13:53:55.511Z,100054.41
2023-11-30T13:56:23.081Z,100037.09
2023-11-30T13:58:51.001Z,100043.16
2023-11-30T14:01:18.637Z,100032.66
2023-11-30T14:03:45.825Z,100042.19
2023-11-30T14:06:14.081Z,100046.50
2023-11-30T14:08:41.531Z,100030.81
2023-11-30T14:11:18.508Z,100035.94
2023-11-30T14:13:46.482Z,100033.53
2023-11-30T14:16:16.044Z,100043.06
2023-11-30T14:18:43.374Z,100041.34
2023-11-30T14:21:10.515Z,100029.16
2023-11-30T14:23:41.558Z,100036.31
2023-11-30T14:26:08.552Z,100043.13
2023-11-30T14:28:35.536Z,100043.13
2023-11-30T14:31:03.000Z,100037.84
2023-11-30T14:33:33.245Z,100037.91
2023-11-30T14:36:00.526Z,100048.31
2023-11-30T14:38:27.581Z,100037.00
2023-11-30T14:40:54.558Z,100033.31
2023-11-30T14:43:29.136Z,100044.78
2023-11-30T14:45:56.274Z,100051.72
2023-11-30T14:48:25.299Z,100051.72
2023-11-30T14:50:53.081Z,100043.88
2023-11-30T14:53:20.229Z,100030.84
2023-11-30T14:55:47.272Z,100037.03
2023-11-30T14:58:16.717Z,100057.06
2023-11-30T15:00:43.749Z,100054.22
2023-11-30T15:03:12.568Z,100051.66
2023-11-30T15:05:40.244Z,100056.00
2023-11-30T15:08:07.904Z,100063.84
2023-11-30T15:10:34.830Z,100050.75
2023-11-30T15:13:01.903Z,100058.72
2023-11-30T15:15:28.996Z,100038.63
2023-11-30T15:17:56.254Z,100036.91
2023-11-30T15:20:24.376Z,100041.34
2023-11-30T15:22:51.695Z,100037.78
2023-11-30T15:25:22.293Z,100027.28
2023-11-30T15:27:50.727Z,100036.06
2023-11-30T15:30:18.710Z,100029.84
2023-11-30T15:32:46.023Z,100042.16
2023-11-30T15:35:13.282Z,100049.09
2023-11-30T15:37:40.342Z,100053.50
2023-11-30T15:40:13.941Z,100050.91
2023-11-30T15:42:41.012Z,100058.59
2023-11-30T15:45:12.841Z,100042.94
2023-11-30T15:47:41.236Z,100027.50
2023-11-30T15:50:08.984Z,100021.34
2023-11-30T15:52:36.183Z,100012.84
2023-11-30T15:55:03.532Z,100024.22
2023-11-30T15:57:30.606Z,100013.69
2023-11-30T15:59:57.800Z,100008.56
2023-11-30T16:02:24.851Z,100016.44
2023-11-30T16:04:52.496Z,99998.91
2023-11-30T16:07:19.587Z,100003.28
2023-11-30T16:09:49.457Z,99999.91
2023-11-30T16:12:19.204Z,99998.94
2023-11-30T16:14:46.582Z,99999.03
2023-11-30T16:17:13.989Z,99995.56
2023-11-30T16:19:41.102Z,99991.25
2023-11-30T16:22:11.576Z,99990.19
2023-11-30T16:24:38.713Z,99974.75
2023-11-30T16:27:06.549Z,99969.34
2023-11-30T16:29:34.267Z,99984.88
2023-11-30T16:32:01.462Z,99991.03
2023-11-30T16:34:32.502Z,99999.63
2023-11-30T16:37:00.061Z,100001.97
2023-11-30T16:39:28.842Z,100003.97
2023-11-30T16:41:57.411Z,100005.06
2023-11-30T16:44:24.800Z,99994.53
2023-11-30T16:46:51.958Z,100006.72
2023-11-30T16:49:19.134Z,100017.28
2023-11-30T16:51:49.393Z,100033.66
2023-11-30T16:54:24.110Z,100018.88
2023-11-30T16:56:54.314Z,100025.66
2023-11-30T16:59:25.420Z,100020.41
2023-11-30T17:01:53.215Z,100008.34
2023-11-30T17:04:20.505Z,100019.69
2023-11-30T17:06:49.751Z,100016.31
2023-11-30T17:09:16.820Z,100016.13
2023-11-30T17:11:47.354Z,100000.53
2023-11-30T17:14:17.534Z,100009.94
2023-11-30T17:16:45.774Z,99992.75
2023-11-30T17:19:15.666Z,99989.34
2023-11-30T17:21:45.844Z,99998.06
2023-11-30T17:24:14.319Z,99989.41
2023-11-30T17:26:41.340Z,99986.69
2023-11-30T17:29:08.700Z,99992.97
2023-11-30T17:31:36.408Z,100001.72
2023-11-30T17:34:03.891Z,99988.56
2023-11-30T17:36:31.523Z,99992.88
2023-11-30T17:39:00.584Z,99988.59
2023-11-30T17:41:27.973Z,99983.34
2023-11-30T17:43:56.362Z,99997.19
2023-11-30T17:46:23.590Z,99998.06
2023-11-30T17:48:51.339Z,99994.59
2023-11-30T17:51:19.616Z,100009.34
2023-11-30T17:53:47.903Z,100007.59
2023-11-30T17:56:19.808Z,100010.25
2023-11-30T17:58:46.976Z,100010.19
2023-11-30T18:01:17.501Z,100011.03
2023-11-30T18:03:44.714Z,99995.31
2023-11-30T18:06:13.389Z,99989.19
2023-11-30T18:08:41.493Z,99996.13
2023-11-30T18:11:12.038Z,100005.66
2023-11-30T18:13:46.976Z,100011.78
2023-11-30T18:16:14.557Z,99997.13
2023-11-30T18:18:41.569Z,99999.69
2023-11-30T18:21:09.026Z,99987.50
2023-11-30T18:23:37.358Z,99983.25
2023-11-30T18:26:05.568Z,99986.78
2023-11-30T18:28:42.294Z,99979.94
2023-11-30T18:31:16.766Z,99979.00
2023-11-30T18:33:52.294Z,99982.53
2023-11-30T18:36:19.866Z,99987.03
2023-11-30T18:38:51.011Z,99995.53
2023-11-30T18:41:24.092Z,99990.34
2023-11-30T18:43:51.451Z,99967.84
2023-11-30T18:46:19.325Z,99954.03
2023-11-30T18:48:47.124Z,99963.50
2023-11-30T18:51:14.729Z,99959.13
2023-11-30T18:53:42.641Z,99977.38
2023-11-30T18:56:10.511Z,99979.13
2023-11-30T18:58:37.995Z,99965.06
2023-11-30T19:01:05.732Z,99964.16
2023-11-30T19:03:33.106Z,99973.66
2023-11-30T19:06:00.275Z,99978.94
2023-11-30T19:08:30.742Z,99966.03
2023-11-30T19:10:58.891Z,99973.06
2023-11-30T19:13:26.033Z,99992.94
2023-11-30T19:15:53.219Z,99984.97
2023-11-30T19:18:21.692Z,99989.34
2023-11-30T19:20:48.679Z,99978.63
2023-11-30T19:23:16.089Z,100001.38
2023-11-30T19:25:44.847Z,100016.84
2023-11-30T19:28:24.346Z,100021.31
2023-11-30T19:30:54.606Z,100020.50
2023-11-30T19:33:22.220Z,99997.13
2023-11-30T19:35:49.494Z,100021.41
2023-11-30T19:38:19.822Z,100010.84
2023-11-30T19:40:59.462Z,100004.84
2023-11-30T19:43:30.698Z,99997.88
2023-11-30T19:46:03.283Z,99988.44
2023-11-30T19:48:32.412Z,99986.84
2023-11-30T19:50:59.519Z,99991.00
2023-11-30T19:53:30.613Z,99984.13
2023-11-30T19:56:02.180Z,99986.81
2023-11-30T19:58:36.580Z,99991.03
2023-11-30T20:01:05.487Z,99977.25
2023-11-30T20:03:32.764Z,99970.41
2023-11-30T20:05:59.851Z,99980.56
2023-11-30T20:08:27.014Z,99987.63
2023-11-30T20:10:55.180Z,99996.34
2023-11-30T20:13:22.589Z,100002.16
2023-11-30T20:15:49.543Z,99992.63
2023-11-30T20:18:18.673Z,99988.25
2023-11-30T20:20:45.928Z,99993.56
2023-11-30T20:23:21.992Z,99978.69
2023-11-30T20:26:11.411Z,99986.59
2023-11-30T20:28:47.360Z,99981.50
2023-11-30T20:31:15.941Z,99967.59
2023-11-30T20:33:43.324Z,99958.94
2023-11-30T20:36:10.569Z,99973.41
2023-11-30T20:38:40.639Z,99968.44
2023-11-30T20:41:17.998Z,99979.00
2023-11-30T20:43:45.463Z,99967.78
2023-11-30T20:46:19.372Z,99982.38
2023-11-30T20:48:47.852Z,99968.44
2023-11-30T20:51:20.022Z,99959.66
2023-11-30T20:53:49.360Z,99959.53
2023-11-30T20:56:16.282Z,99976.16
2023-11-30T20:58:48.291Z,99980.53
2023-11-30T21:01:18.490Z,99975.22
2023-11-30T21:03:46.826Z,99977.81
2023-11-30T21:06:18.380Z,99977.06
2023-11-30T21:08:48.826Z,99971.78
2023-11-30T21:11:16.073Z,99963.94
2023-11-30T21:13:45.292Z,99958.69
2023-11-30T21:16:17.667Z,99973.41
2023-11-30T21:18:49.416Z,99993.34
2023-11-30T21:21:17.922Z,99977.78
2023-11-30T21:23:51.510Z,99984.94
2023-11-30T21:26:18.948Z,99974.59
2023-11-30T21:28:47.065Z,99989.16
2023-11-30T21:31:19.066Z,99974.38
2023-11-30T21:33:48.827Z,99986.41
2023-11-30T21:36:17.122Z,99974.31
2023-11-30T21:38:45.917Z,99977.88
2023-11-30T21:41:17.067Z,99966.53
2023-11-30T21:43:52.235Z,99945.91
2023-11-30T21:46:24.488Z,99951.16
2023-11-30T21:48:53.216Z,99957.28
2023-11-30T21:51:30.333Z,99952.88
2023-11-30T21:53:57.470Z,99949.50
2023-11-30T21:56:24.573Z,99963.38
2023-11-30T21:58:52.252Z,99965.06
2023-11-30T22:01:19.891Z,99958.03
2023-11-30T22:03:47.069Z,99972.69
2023-11-30T22:06:14.504Z,99976.16
2023-11-30T22:08:41.484Z,99969.38
2023-11-30T22:11:08.686Z,99970.19
2023-11-30T22:13:36.884Z,99973.69
2023-11-30T22:16:11.479Z,99977.84
2023-11-30T22:18:40.249Z,99985.69
2023-11-30T22:21:07.922Z,99983.13
2023-11-30T22:23:40.643Z,99951.97
2023-11-30T22:26:09.835Z,99952.88
2023-11-30T22:28:37.614Z,99947.56
2023-11-30T22:31:06.140Z,99951.97
2023-11-30T22:33:35.158Z,99959.75
2023-11-30T22:36:02.254Z,99965.69
2023-11-30T22:38:32.875Z,99976.22
2023-11-30T22:41:03.857Z,99965.47
2023-11-30T22:43:34.257Z,99943.84
2023-11-30T22:46:01.614Z,99945.63
2023-11-30T22:48:33.898Z,99934.34
2023-11-30T22:51:01.086Z,99942.97
2023-11-30T22:53:28.127Z,99935.28
2023-11-30T22:55:55.940Z,99947.56
2023-11-30T22:58:23.664Z,99945.69
2023-11-30T23:00:53.377Z,99972.63
2023-11-30T23:03:34.021Z,99963.06
2023-11-30T23:06:02.471Z,99943.06
2023-11-30T23:08:29.865Z,99938.81
2023-11-30T23:10:57.260Z,99932.59
2023-11-30T23:13:24.566Z,99927.22
2023-11-30T23:15:51.818Z,99921.31
2023-11-30T23:18:22.277Z,99918.66
2023-11-30T23:20:51.217Z,99918.03
2023-11-30T23:23:25.838Z,99934.50
2023-11-30T23:25:53.547Z,99934.66
2023-11-30T23:28:23.471Z,99925.00
2023-11-30T23:30:51.164Z,99919.94
2023-11-30T23:33:18.260Z,99918.13
2023-11-30T23:35:47.463Z,99905.91
2023-11-30T23:38:15.696Z,99920.81
2023-11-30T23:40:45.092Z,99927.41
2023-11-30T23:43:12.638Z,99922.34
2023-11-30T23:45:39.947Z,99926.84
2023-11-30T23:48:07.246Z,99925.13
2023-11-30T23:50:36.172Z,99924.25
2023-11-30T23:53:03.301Z,99917.41
2023-11-30T23:55:30.372Z,99906.94
2023-11-30T23:57:57.972Z,99900.97
